createdAt,value
2023-04-16T00:04:42.563Z,7.09
2023-04-16T00:09:49.553Z,6.94
2023-04-16T00:14:56.502Z,6.81
2023-04-16T00:20:03.500Z,6.73
2023-04-16T00:25:10.994Z,6.63
2023-04-16T00:30:18.123Z,6.51
2023-04-16T00:35:25.257Z,6.41
2023-04-16T00:40:32.414Z,6.32
2023-04-16T00:45:39.602Z,6.24
2023-04-16T00:50:46.752Z,6.21
2023-04-16T00:55:53.724Z,6.18
2023-04-16T01:01:00.813Z,6.11
2023-04-16T01:06:08.878Z,6.00
2023-04-16T01:11:16.822Z,5.88
2023-04-16T01:16:23.898Z,5.85
2023-04-16T01:21:31.607Z,5.79
2023-04-16T01:26:39.251Z,5.67
2023-04-16T01:31:46.966Z,5.58
2023-04-16T01:37:06.560Z,5.53
2023-04-16T01:42:13.345Z,5.43
2023-04-16T01:47:20.400Z,5.37
2023-04-16T01:52:27.391Z,5.36
2023-04-16T01:57:34.516Z,5.36
2023-04-16T02:02:42.501Z,5.34
2023-04-16T02:07:49.655Z,5.32
2023-04-16T02:12:56.994Z,5.33
2023-04-16T02:18:04.652Z,5.28
2023-04-16T02:23:14.047Z,5.25
2023-04-16T02:28:21.654Z,5.29
2023-04-16T02:33:28.794Z,5.35
2023-04-16T02:38:41.467Z,5.34
2023-04-16T02:43:49.022Z,5.27
2023-04-16T02:48:56.230Z,5.13
2023-04-16T02:54:03.625Z,5.02
2023-04-16T02:59:11.103Z,4.92
2023-04-16T03:04:18.454Z,4.86
2023-04-16T03:09:25.969Z,4.79
2023-04-16T03:14:33.096Z,4.74
2023-04-16T03:19:39.962Z,4.79
2023-04-16T03:24:46.948Z,4.91
2023-04-16T03:29:54.191Z,5.03
2023-04-16T03:35:01.873Z,5.14
2023-04-16T03:40:10.328Z,5.22
2023-04-16T03:45:18.092Z,5.27
2023-04-16T03:50:25.807Z,5.33
2023-04-16T03:55:33.234Z,5.38
2023-04-16T04:00:42.372Z,5.39
2023-04-16T04:05:51.922Z,5.38
2023-04-16T04:11:04.527Z,5.42
2023-04-16T04:16:12.492Z,5.45
2023-04-16T04:21:19.584Z,5.46
2023-04-16T04:26:26.577Z,5.48
2023-04-16T04:31:33.729Z,5.46
2023-04-16T04:36:41.622Z,5.47
2023-04-16T04:41:48.963Z,5.48
2023-04-16T04:46:57.773Z,5.50
2023-04-16T04:52:06.153Z,5.52
2023-04-16T04:57:13.144Z,5.52
2023-04-16T05:02:21.966Z,5.55
2023-04-16T05:07:28.995Z,5.60
2023-04-16T05:12:36.032Z,5.67
2023-04-16T05:17:43.105Z,5.80
2023-04-16T05:22:50.369Z,5.95
2023-04-16T05:27:57.257Z,6.12
2023-04-16T05:33:04.435Z,6.31
2023-04-16T05:38:11.449Z,6.49
2023-04-16T05:43:18.601Z,6.69
2023-04-16T05:48:25.579Z,6.95
2023-04-16T05:53:32.719Z,7.18
2023-04-16T05:58:39.739Z,7.31
2023-04-16T06:03:46.889Z,7.50
2023-04-16T06:08:53.872Z,7.77
2023-04-16T06:14:00.871Z,8.02
2023-04-16T06:19:08.096Z,8.19
2023-04-16T06:24:15.674Z,8.38
2023-04-16T06:29:27.926Z,8.51
2023-04-16T06:34:41.707Z,8.56
2023-04-16T06:39:48.582Z,8.53
2023-04-16T06:44:55.785Z,8.52
2023-04-16T06:50:02.662Z,8.66
2023-04-16T06:55:10.784Z,8.80
2023-04-16T07:00:18.086Z,8.89
2023-04-16T07:05:25.724Z,9.06
2023-04-16T07:10:32.883Z,9.35
2023-04-16T07:15:39.743Z,9.57
2023-04-16T07:20:46.746Z,9.65
2023-04-16T07:25:53.792Z,9.71
2023-04-16T07:31:01.067Z,9.70
2023-04-16T07:36:08.573Z,9.76
2023-04-16T07:41:16.475Z,9.77
2023-04-16T07:46:24.696Z,9.71
2023-04-16T07:51:32.339Z,9.79
2023-04-16T07:56:39.248Z,9.87
2023-04-16T08:01:46.180Z,10.01
2023-04-16T08:06:53.055Z,10.22
2023-04-16T08:12:01.240Z,10.40
2023-04-16T08:17:08.152Z,10.58
2023-04-16T08:22:15.381Z,10.73
2023-04-16T08:27:22.480Z,10.90
2023-04-16T08:32:30.005Z,11.14
2023-04-16T08:37:39.557Z,11.50
2023-04-16T08:42:50.846Z,11.90
2023-04-16T08:47:58.153Z,12.34
2023-04-16T08:53:07.325Z,12.62
2023-04-16T08:58:19.824Z,12.86
2023-04-16T09:03:27.261Z,13.13
2023-04-16T09:08:35.830Z,13.17
2023-04-16T09:13:42.733Z,13.35
2023-04-16T09:18:49.600Z,13.65
2023-04-16T09:23:57.262Z,13.81
2023-04-16T09:29:04.324Z,13.96
2023-04-16T09:34:11.791Z,14.00
2023-04-16T09:39:21.448Z,14.08
2023-04-16T09:44:38.009Z,14.18
2023-04-16T09:49:45.385Z,14.36
2023-04-16T09:54:54.601Z,14.52
2023-04-16T10:00:07.842Z,14.64
2023-04-16T10:05:18.927Z,14.75
2023-04-16T10:10:26.529Z,14.67
2023-04-16T10:15:33.915Z,14.83
2023-04-16T10:20:41.700Z,15.05
2023-04-16T10:25:49.098Z,15.21
2023-04-16T10:30:58.021Z,15.32
2023-04-16T10:36:12.828Z,15.64
2023-04-16T10:41:20.813Z,15.92
2023-04-16T10:46:32.510Z,16.17
2023-04-16T10:51:39.535Z,16.21
2023-04-16T10:56:48.059Z,16.52
2023-04-16T11:01:59.493Z,16.57
2023-04-16T11:07:14.894Z,16.71
2023-04-16T11:12:24.493Z,16.79
2023-04-16T11:17:34.215Z,16.92
2023-04-16T11:22:41.579Z,17.29
2023-04-16T11:27:48.437Z,17.48
2023-04-16T11:32:55.538Z,17.67
2023-04-16T11:38:02.774Z,17.94
2023-04-16T11:43:17.817Z,17.87
2023-04-16T11:48:24.942Z,17.80
2023-04-16T11:53:32.249Z,18.12
2023-04-16T11:58:43.148Z,18.64
2023-04-16T12:03:50.704Z,18.98
2023-04-16T12:08:57.954Z,18.86
2023-04-16T12:14:11.872Z,18.53
2023-04-16T12:19:19.391Z,19.20
2023-04-16T12:24:27.766Z,20.32
2023-04-16T12:29:34.836Z,21.30
2023-04-16T12:34:52.871Z,22.43
2023-04-16T12:39:59.877Z,23.06
2023-04-16T12:45:08.179Z,23.06
2023-04-16T12:50:15.281Z,23.71
2023-04-16T12:55:22.267Z,24.38
2023-04-16T13:00:29.123Z,24.09
2023-04-16T13:05:36.548Z,23.19
2023-04-16T13:10:43.650Z,22.15
2023-04-16T13:15:50.930Z,21.64
2023-04-16T13:20:57.716Z,21.13
2023-04-16T13:26:04.649Z,21.76
2023-04-16T13:31:11.467Z,22.73
2023-04-16T13:36:18.481Z,22.05
2023-04-16T13:41:25.450Z,21.71
2023-04-16T13:46:32.566Z,22.53
2023-04-16T13:51:39.646Z,23.24
2023-04-16T13:56:46.512Z,22.80
2023-04-16T14:01:53.735Z,22.17
2023-04-16T14:07:01.071Z,21.86
2023-04-16T14:12:08.629Z,22.87
2023-04-16T14:17:15.519Z,23.85
2023-04-16T14:22:22.357Z,24.50
2023-04-16T14:27:29.834Z,23.96
2023-04-16T14:32:37.494Z,23.60
2023-04-16T14:37:44.688Z,23.29
2023-04-16T14:42:51.539Z,22.82
2023-04-16T14:47:59.639Z,22.48
2023-04-16T14:53:06.843Z,23.18
2023-04-16T14:58:13.693Z,22.98
2023-04-16T15:03:20.891Z,23.01
2023-04-16T15:08:27.967Z,23.05
2023-04-16T15:13:34.903Z,23.35
2023-04-16T15:18:41.850Z,23.26
2023-04-16T15:23:48.832Z,23.55
2023-04-16T15:28:55.692Z,24.19
2023-04-16T15:34:02.498Z,24.78
2023-04-16T15:39:09.972Z,25.03
2023-04-16T15:44:17.466Z,25.33
2023-04-16T15:49:24.861Z,25.61
2023-04-16T15:54:32.373Z,25.89
2023-04-16T15:59:39.458Z,25.56
2023-04-16T16:04:49.032Z,25.87
2023-04-16T16:09:56.331Z,25.74
2023-04-16T16:15:03.767Z,25.63
2023-04-16T16:20:12.803Z,25.09
2023-04-16T16:25:18.429Z,24.86
2023-04-16T16:30:26.339Z,23.96
2023-04-16T16:35:33.898Z,23.00
2023-04-16T16:40:40.878Z,22.02
2023-04-16T16:45:47.610Z,21.41
2023-04-16T16:50:54.825Z,20.83
2023-04-16T16:56:01.806Z,20.19
2023-04-16T17:01:08.800Z,19.56
2023-04-16T17:06:15.837Z,18.98
2023-04-16T17:11:22.911Z,18.55
2023-04-16T17:16:29.859Z,18.22
2023-04-16T17:21:36.900Z,17.65
2023-04-16T17:26:44.448Z,16.99
2023-04-16T17:31:51.399Z,16.57
2023-04-16T17:36:58.490Z,16.17
2023-04-16T17:42:05.580Z,15.74
2023-04-16T17:47:12.550Z,15.44
2023-04-16T17:52:21.365Z,15.17
2023-04-16T17:57:28.258Z,14.91
2023-04-16T18:02:36.062Z,14.57
2023-04-16T18:07:43.757Z,14.23
2023-04-16T18:12:50.792Z,13.89
2023-04-16T18:17:57.796Z,13.56
2023-04-16T18:23:04.933Z,13.35
2023-04-16T18:28:14.016Z,13.22
2023-04-16T18:33:48.834Z,13.09
2023-04-16T18:39:00.262Z,12.96
2023-04-16T18:44:10.985Z,12.82
2023-04-16T18:49:18.143Z,12.69
2023-04-16T18:54:25.937Z,12.55
2023-04-16T18:59:34.590Z,12.44
2023-04-16T19:04:42.030Z,12.32
2023-04-16T19:09:48.925Z,12.22
2023-04-16T19:14:56.023Z,12.09
2023-04-16T19:20:08.142Z,11.97
2023-04-16T19:25:15.822Z,11.90
2023-04-16T19:30:22.959Z,11.86
2023-04-16T19:35:30.270Z,11.80
2023-04-16T19:40:37.233Z,11.74
2023-04-16T19:45:47.875Z,11.70
2023-04-16T19:50:54.776Z,11.64
2023-04-16T19:56:01.759Z,11.58
2023-04-16T20:01:12.716Z,11.57
2023-04-16T20:06:19.897Z,11.56
2023-04-16T20:11:27.325Z,11.55
2023-04-16T20:16:35.134Z,11.54
2023-04-16T20:21:45.605Z,11.53
2023-04-16T20:26:56.537Z,11.47
2023-04-16T20:32:03.545Z,11.39
2023-04-16T20:37:10.436Z,11.31
2023-04-16T20:42:18.092Z,11.24
2023-04-16T20:47:25.055Z,11.15
2023-04-16T20:52:32.745Z,11.06
2023-04-16T20:57:39.703Z,10.98
2023-04-16T21:02:46.810Z,10.89
2023-04-16T21:07:55.757Z,10.80
2023-04-16T21:13:02.884Z,10.73
2023-04-16T21:18:10.539Z,10.69
2023-04-16T21:23:17.436Z,10.62
2023-04-16T21:28:27.501Z,10.56
2023-04-16T21:33:34.352Z,10.49
2023-04-16T21:38:41.373Z,10.41
2023-04-16T21:43:48.254Z,10.32
2023-04-16T21:48:55.081Z,10.23
2023-04-16T21:54:01.973Z,10.16
2023-04-16T21:59:09.051Z,10.09
2023-04-16T22:04:16.257Z,10.04
2023-04-16T22:09:24.886Z,10.01
2023-04-16T22:14:32.064Z,9.96
2023-04-16T22:19:39.548Z,9.91
2023-04-16T22:24:46.364Z,9.86
2023-04-16T22:29:53.185Z,9.82
2023-04-16T22:35:00.161Z,9.77
2023-04-16T22:40:11.911Z,9.70
2023-04-16T22:45:19.024Z,9.64
2023-04-16T22:50:25.991Z,9.57
2023-04-16T22:55:32.787Z,9.52
2023-04-16T23:00:39.768Z,9.47
2023-04-16T23:05:46.644Z,9.42
2023-04-16T23:10:53.716Z,9.37
2023-04-16T23:16:00.921Z,9.32
2023-04-16T23:21:08.511Z,9.27
2023-04-16T23:26:15.545Z,9.21
2023-04-16T23:31:22.467Z,9.15
2023-04-16T23:36:29.441Z,9.11
2023-04-16T23:41:36.442Z,9.08
2023-04-16T23:46:43.384Z,9.07
2023-04-16T23:51:50.303Z,9.05
2023-04-16T23:56:57.986Z,9.05
